createdAt,value
2022-12-08T00:00:17.545Z,-0.19
2022-12-08T00:00:50.001Z,-0.13
2022-12-08T00:01:24.610Z,-0.17
2022-12-08T00:01:56.579Z,-0.18
2022-12-08T00:02:28.662Z,-0.09
2022-12-08T00:03:00.844Z,-0.04
2022-12-08T00:03:33.803Z,-0.03
2022-12-08T00:04:06.556Z,-0.06
2022-12-08T00:04:58.399Z,0.02
2022-12-08T00:05:48.803Z,0.08
2022-12-08T00:06:42.390Z,0.13
2022-12-08T00:07:32.845Z,-0.02
2022-12-08T00:08:23.863Z,-0.12
2022-12-08T00:09:14.542Z,-0.33
2022-12-08T00:09:46.528Z,-0.43
2022-12-08T00:10:47.217Z,-0.48
2022-12-08T00:11:16.067Z,-0.37
2022-12-08T00:12:11.118Z,-0.34
2022-12-08T00:12:42.965Z,-0.28
2022-12-08T00:13:14.822Z,-0.35
2022-12-08T00:13:46.980Z,-0.53
2022-12-08T00:14:19.597Z,-0.52
2022-12-08T00:14:51.465Z,-0.41
2022-12-08T00:15:23.313Z,-0.49
2022-12-08T00:16:00.693Z,-0.37
2022-12-08T00:16:32.582Z,-0.32
2022-12-08T00:17:06.903Z,-0.39
2022-12-08T00:17:38.838Z,-0.51
2022-12-08T00:18:10.641Z,-0.56
2022-12-08T00:18:42.462Z,-0.46
2022-12-08T00:19:14.292Z,-0.45
2022-12-08T00:19:46.221Z,-0.42
2022-12-08T00:20:18.134Z,-0.55
2022-12-08T00:20:58.152Z,-0.52
2022-12-08T00:21:30.009Z,-0.46
2022-12-08T00:22:03.197Z,-0.50
2022-12-08T00:22:35.343Z,-0.43
2022-12-08T00:23:07.333Z,-0.33
2022-12-08T00:23:39.231Z,-0.23
2022-12-08T00:24:11.274Z,-0.30
2022-12-08T00:24:47.638Z,-0.17
2022-12-08T00:25:19.539Z,-0.06
2022-12-08T00:25:51.416Z,-0.03
2022-12-08T00:26:23.754Z,-0.02
2022-12-08T00:26:55.619Z,0.03
2022-12-08T00:27:28.229Z,0.04
2022-12-08T00:28:00.354Z,0.04
2022-12-08T00:28:33.475Z,0.10
2022-12-08T00:29:06.108Z,0.04
2022-12-08T00:29:38.780Z,0.03
2022-12-08T00:30:11.118Z,-0.06
2022-12-08T00:30:43.617Z,-0.04
2022-12-08T00:31:15.699Z,-0.16
2022-12-08T00:31:47.727Z,-0.13
2022-12-08T00:32:19.624Z,-0.07
2022-12-08T00:32:51.516Z,-0.06
2022-12-08T00:33:23.713Z,-0.04
2022-12-08T00:33:55.745Z,-0.30
2022-12-08T00:34:27.583Z,-0.32
2022-12-08T00:34:59.389Z,-0.25
2022-12-08T00:35:31.199Z,-0.20
2022-12-08T00:36:10.651Z,-0.12
2022-12-08T00:36:43.436Z,-0.05
2022-12-08T00:37:15.267Z,-0.26
2022-12-08T00:37:47.118Z,-0.27
2022-12-08T00:38:18.966Z,-0.15
2022-12-08T00:38:51.085Z,-0.11
2022-12-08T00:39:23.063Z,-0.03
2022-12-08T00:39:54.926Z,0.03
2022-12-08T00:40:26.834Z,-0.06
2022-12-08T00:40:58.813Z,-0.08
2022-12-08T00:41:49.185Z,-0.14
2022-12-08T00:42:21.319Z,-0.37
2022-12-08T00:42:53.288Z,-0.36
2022-12-08T00:43:25.250Z,-0.37
2022-12-08T00:43:57.457Z,-0.32
2022-12-08T00:44:29.475Z,-0.48
2022-12-08T00:45:01.413Z,-0.53
2022-12-08T00:45:33.346Z,-0.45
2022-12-08T00:46:05.435Z,-0.31
2022-12-08T00:46:37.323Z,-0.17
2022-12-08T00:47:09.382Z,-0.22
2022-12-08T00:47:41.192Z,-0.35
2022-12-08T00:48:12.997Z,-0.42
2022-12-08T00:48:44.839Z,-0.38
2022-12-08T00:49:17.945Z,-0.29
2022-12-08T00:49:49.828Z,-0.25
2022-12-08T00:50:21.700Z,-0.20
2022-12-08T00:50:53.606Z,-0.17
2022-12-08T00:51:25.437Z,-0.23
2022-12-08T00:51:57.328Z,-0.17
2022-12-08T00:52:29.270Z,-0.24
2022-12-08T00:53:01.086Z,-0.13
2022-12-08T00:53:32.982Z,-0.22
2022-12-08T00:54:06.198Z,-0.26
2022-12-08T00:54:38.574Z,-0.15
2022-12-08T00:55:10.444Z,-0.09
2022-12-08T00:55:43.519Z,-0.04
2022-12-08T00:56:15.333Z,-0.12
2022-12-08T00:56:47.283Z,-0.12
2022-12-08T00:57:19.120Z,-0.08
2022-12-08T00:57:51.058Z,-0.01
2022-12-08T00:58:22.899Z,0.01
2022-12-08T00:58:55.000Z,0.08
2022-12-08T00:59:26.921Z,0.04
2022-12-08T00:59:59.108Z,0.05
2022-12-08T01:00:30.938Z,0.09
2022-12-08T01:01:09.554Z,0.09
2022-12-08T01:01:44.006Z,0.06
2022-12-08T01:02:15.962Z,0.08
2022-12-08T01:02:47.845Z,0.10
2022-12-08T01:03:19.904Z,0.16
2022-12-08T01:03:51.830Z,0.22
2022-12-08T01:04:23.708Z,0.22
2022-12-08T01:04:55.599Z,0.19
2022-12-08T01:05:27.718Z,0.01
2022-12-08T01:06:04.225Z,-0.16
2022-12-08T01:06:36.276Z,-0.15
2022-12-08T01:07:08.701Z,-0.27
2022-12-08T01:07:40.781Z,-0.25
2022-12-08T01:08:12.754Z,-0.18
2022-12-08T01:08:45.187Z,-0.09
2022-12-08T01:09:18.303Z,-0.07
2022-12-08T01:09:50.174Z,-0.08
2022-12-08T01:10:21.969Z,0.01
2022-12-08T01:10:54.134Z,0.00
2022-12-08T01:11:26.015Z,-0.17
2022-12-08T01:11:57.850Z,-0.18
2022-12-08T01:12:30.534Z,-0.23
2022-12-08T01:13:02.473Z,-0.15
2022-12-08T01:13:34.878Z,-0.12
2022-12-08T01:14:06.958Z,-0.04
2022-12-08T01:14:38.753Z,0.07
2022-12-08T01:15:10.735Z,0.09
2022-12-08T01:15:42.522Z,0.11
2022-12-08T01:16:28.632Z,-0.03
2022-12-08T01:17:00.572Z,-0.20
2022-12-08T01:17:32.552Z,-0.36
2022-12-08T01:18:04.466Z,-0.37
2022-12-08T01:18:36.934Z,-0.33
2022-12-08T01:19:11.086Z,-0.49
2022-12-08T01:19:43.250Z,-0.37
2022-12-08T01:20:15.127Z,-0.41
2022-12-08T01:20:47.059Z,-0.35
2022-12-08T01:21:19.491Z,-0.41
2022-12-08T01:21:51.359Z,-0.47
2022-12-08T01:22:23.222Z,-0.48
2022-12-08T01:22:55.038Z,-0.49
2022-12-08T01:23:27.975Z,-0.45
2022-12-08T01:24:00.650Z,-0.45
2022-12-08T01:24:32.531Z,-0.31
2022-12-08T01:25:04.702Z,-0.25
2022-12-08T01:25:36.578Z,-0.28
2022-12-08T01:26:10.574Z,-0.40
2022-12-08T01:26:43.421Z,-0.36
2022-12-08T01:27:16.261Z,-0.45
2022-12-08T01:27:48.445Z,-0.55
2022-12-08T01:28:20.464Z,-0.56
2022-12-08T01:28:52.457Z,-0.44
2022-12-08T01:29:24.350Z,-0.40
2022-12-08T01:29:56.323Z,-0.34
2022-12-08T01:30:28.275Z,-0.23
2022-12-08T01:31:01.453Z,-0.31
2022-12-08T01:31:33.333Z,-0.38
2022-12-08T01:32:05.621Z,-0.38
2022-12-08T01:32:37.753Z,-0.27
2022-12-08T01:33:09.620Z,-0.24
2022-12-08T01:33:41.621Z,-0.13
2022-12-08T01:34:13.501Z,-0.10
2022-12-08T01:34:45.337Z,-0.07
2022-12-08T01:35:17.359Z,0.01
2022-12-08T01:35:49.492Z,-0.10
2022-12-08T01:36:29.752Z,-0.10
2022-12-08T01:37:01.621Z,-0.03
2022-12-08T01:37:33.749Z,-0.04
2022-12-08T01:38:05.661Z,0.02
2022-12-08T01:38:37.612Z,0.06
2022-12-08T01:39:16.633Z,0.07
2022-12-08T01:39:48.530Z,0.05
2022-12-08T01:40:20.444Z,-0.08
2022-12-08T01:40:52.258Z,-0.11
2022-12-08T01:41:26.998Z,-0.24
2022-12-08T01:41:58.904Z,-0.27
2022-12-08T01:42:32.421Z,-0.16
2022-12-08T01:43:04.569Z,-0.12
2022-12-08T01:43:58.041Z,-0.08
2022-12-08T01:44:29.806Z,-0.18
2022-12-08T01:45:05.319Z,-0.33
2022-12-08T01:45:37.367Z,-0.33
2022-12-08T01:46:09.305Z,-0.24
2022-12-08T01:46:44.013Z,-0.15
2022-12-08T01:47:15.893Z,-0.09
2022-12-08T01:47:51.950Z,-0.19
2022-12-08T01:48:27.203Z,-0.19
2022-12-08T01:49:05.311Z,-0.22
2022-12-08T01:49:37.539Z,-0.39
2022-12-08T01:50:13.020Z,-0.40
2022-12-08T01:50:46.780Z,-0.36
2022-12-08T01:51:19.669Z,-0.29
2022-12-08T01:51:51.496Z,-0.16
2022-12-08T01:52:46.627Z,-0.11
2022-12-08T01:53:32.761Z,-0.10
2022-12-08T01:54:07.107Z,-0.15
2022-12-08T01:54:58.345Z,-0.18
2022-12-08T01:55:33.361Z,-0.26
2022-12-08T01:56:20.561Z,-0.24
2022-12-08T01:57:07.223Z,-0.18
2022-12-08T01:57:53.006Z,-0.15
2022-12-08T01:58:48.058Z,-0.18
2022-12-08T01:59:20.244Z,-0.12
2022-12-08T02:00:02.874Z,-0.15
2022-12-08T02:00:38.489Z,-0.23
2022-12-08T02:01:11.334Z,-0.19
2022-12-08T02:01:43.410Z,-0.12
2022-12-08T02:02:15.860Z,-0.12
2022-12-08T02:03:07.097Z,-0.24
2022-12-08T02:03:42.208Z,-0.43
2022-12-08T02:04:14.042Z,-0.58
2022-12-08T02:04:45.902Z,-0.55
2022-12-08T02:05:20.087Z,-0.50
2022-12-08T02:05:52.700Z,-0.42
2022-12-08T02:06:27.710Z,-0.46
2022-12-08T02:07:04.898Z,-0.38
2022-12-08T02:07:39.968Z,-0.37
2022-12-08T02:08:13.579Z,-0.38
2022-12-08T02:08:46.037Z,-0.49
2022-12-08T02:09:19.625Z,-0.68
2022-12-08T02:09:53.846Z,-0.77
2022-12-08T02:10:29.524Z,-0.85
2022-12-08T02:11:01.650Z,-0.84
2022-12-08T02:11:33.752Z,-0.81
2022-12-08T02:12:05.897Z,-0.80
2022-12-08T02:12:37.743Z,-0.73
2022-12-08T02:13:13.236Z,-0.79
2022-12-08T02:13:47.471Z,-0.91
2022-12-08T02:14:19.359Z,-0.97
2022-12-08T02:14:51.329Z,-0.94
2022-12-08T02:15:34.074Z,-0.83
2022-12-08T02:16:45.533Z,-0.64
2022-12-08T02:17:27.567Z,-0.52
2022-12-08T02:18:17.894Z,-0.46
2022-12-08T02:19:30.334Z,-0.41
2022-12-08T02:20:23.894Z,-0.26
2022-12-08T02:21:09.285Z,-0.16
2022-12-08T02:21:52.989Z,-0.28
2022-12-08T02:22:58.646Z,-0.30
2022-12-08T02:23:59.354Z,-0.17
2022-12-08T02:25:03.421Z,-0.54
2022-12-08T02:25:35.227Z,-0.67
2022-12-08T02:26:39.346Z,-0.66
2022-12-08T02:27:20.138Z,-0.77
2022-12-08T02:28:22.314Z,-0.94
2022-12-08T02:29:17.110Z,-0.95
2022-12-08T02:30:04.826Z,-0.74
2022-12-08T02:30:59.937Z,-0.75
2022-12-08T02:31:43.895Z,-0.63
2022-12-08T02:32:24.443Z,-0.70
2022-12-08T02:32:59.370Z,-0.64
2022-12-08T02:33:50.115Z,-0.55
2022-12-08T02:34:24.747Z,-0.70
2022-12-08T02:35:05.495Z,-0.94
2022-12-08T02:36:15.827Z,-0.91
2022-12-08T02:37:06.767Z,-0.77
2022-12-08T02:37:50.234Z,-0.61
2022-12-08T02:38:28.453Z,-0.67
2022-12-08T02:39:23.389Z,-0.84
2022-12-08T02:40:33.191Z,-0.94
2022-12-08T02:41:36.408Z,-0.86
2022-12-08T02:42:30.314Z,-0.94
2022-12-08T02:43:16.954Z,-0.96
2022-12-08T02:43:59.961Z,-0.88
2022-12-08T02:44:35.645Z,-0.75
2022-12-08T02:45:15.361Z,-0.79
2022-12-08T02:46:00.209Z,-0.88
2022-12-08T02:46:45.239Z,-0.79
2022-12-08T02:47:20.408Z,-0.67
2022-12-08T02:47:52.681Z,-0.70
2022-12-08T02:48:28.462Z,-0.63
2022-12-08T02:49:02.244Z,-0.49
2022-12-08T02:49:35.565Z,-0.40
2022-12-08T02:50:08.305Z,-0.38
2022-12-08T02:50:40.149Z,-0.29
2022-12-08T02:51:12.002Z,-0.23
2022-12-08T02:51:43.828Z,-0.21
2022-12-08T02:52:15.649Z,-0.20
2022-12-08T02:52:48.764Z,-0.13
2022-12-08T02:53:20.646Z,-0.10
2022-12-08T02:53:52.793Z,-0.18
2022-12-08T02:54:25.090Z,-0.10
2022-12-08T02:54:58.730Z,-0.07
2022-12-08T02:55:56.509Z,-0.09
2022-12-08T02:56:36.835Z,-0.09
2022-12-08T02:57:11.503Z,-0.11
2022-12-08T02:57:45.969Z,-0.14
2022-12-08T02:58:39.330Z,-0.13
2022-12-08T02:59:46.147Z,-0.22
2022-12-08T03:00:23.568Z,-0.15
2022-12-08T03:01:01.628Z,-0.17
2022-12-08T03:02:03.381Z,-0.12
2022-12-08T03:02:53.915Z,-0.08
2022-12-08T03:04:10.383Z,0.00
2022-12-08T03:05:03.290Z,0.06
2022-12-08T03:05:55.386Z,0.12
2022-12-08T03:06:47.541Z,0.16
2022-12-08T03:07:19.369Z,0.09
2022-12-08T03:08:04.449Z,-0.10
2022-12-08T03:08:49.865Z,-0.15
2022-12-08T03:09:24.459Z,-0.13
2022-12-08T03:10:03.552Z,-0.06
2022-12-08T03:10:46.515Z,-0.06
2022-12-08T03:11:24.821Z,-0.17
2022-12-08T03:12:03.439Z,-0.19
2022-12-08T03:12:41.713Z,-0.33
2022-12-08T03:13:20.453Z,-0.40
2022-12-08T03:13:56.230Z,-0.38
2022-12-08T03:14:30.438Z,-0.36
2022-12-08T03:15:09.547Z,-0.39
2022-12-08T03:15:45.472Z,-0.23
2022-12-08T03:16:22.708Z,-0.12
2022-12-08T03:16:57.945Z,-0.04
2022-12-08T03:17:31.740Z,0.00
2022-12-08T03:18:06.533Z,-0.02
2022-12-08T03:18:44.207Z,-0.10
2022-12-08T03:19:26.631Z,-0.11
2022-12-08T03:20:04.816Z,-0.26
2022-12-08T03:20:38.488Z,-0.15
2022-12-08T03:21:12.112Z,-0.08
2022-12-08T03:21:46.333Z,0.02
2022-12-08T03:22:27.595Z,0.07
2022-12-08T03:23:02.270Z,0.13
2022-12-08T03:23:38.157Z,0.14
2022-12-08T03:24:11.270Z,0.18
2022-12-08T03:24:45.907Z,0.15
2022-12-08T03:25:21.379Z,-0.06
2022-12-08T03:26:18.569Z,0.02
2022-12-08T03:26:56.948Z,-0.11
2022-12-08T03:27:31.626Z,-0.03
2022-12-08T03:28:03.597Z,0.03
2022-12-08T03:28:35.518Z,0.04
2022-12-08T03:29:08.164Z,0.01
2022-12-08T03:29:40.532Z,0.03
2022-12-08T03:30:12.810Z,0.13
2022-12-08T03:30:48.244Z,0.25
2022-12-08T03:31:23.901Z,0.24
2022-12-08T03:32:09.117Z,0.26
2022-12-08T03:32:55.372Z,0.02
2022-12-08T03:33:32.971Z,-0.09
2022-12-08T03:34:05.730Z,0.06
2022-12-08T03:34:40.469Z,0.15
2022-12-08T03:35:15.914Z,0.26
2022-12-08T03:35:48.066Z,0.27
2022-12-08T03:36:20.960Z,0.31
2022-12-08T03:36:52.778Z,0.28
2022-12-08T03:37:27.153Z,0.35
2022-12-08T03:38:08.132Z,0.34
2022-12-08T03:38:43.397Z,0.24
2022-12-08T03:39:15.258Z,0.20
2022-12-08T03:39:47.551Z,0.20
2022-12-08T03:40:20.645Z,0.30
2022-12-08T03:41:11.201Z,0.25
2022-12-08T03:41:43.109Z,0.31
2022-12-08T03:42:14.964Z,0.10
2022-12-08T03:42:47.196Z,0.10
2022-12-08T03:43:19.019Z,0.19
2022-12-08T03:43:53.357Z,0.29
2022-12-08T03:44:25.197Z,0.30
2022-12-08T03:44:57.076Z,0.29
2022-12-08T03:45:29.078Z,0.34
2022-12-08T03:46:01.023Z,0.36
2022-12-08T03:46:32.911Z,0.38
2022-12-08T03:47:04.997Z,0.37
2022-12-08T03:47:37.533Z,0.42
2022-12-08T03:48:09.681Z,0.42
2022-12-08T03:48:41.603Z,0.42
2022-12-08T03:49:13.435Z,0.38
2022-12-08T03:49:45.238Z,0.31
2022-12-08T03:50:17.095Z,0.34
2022-12-08T03:50:48.881Z,0.38
2022-12-08T03:51:22.174Z,0.47
2022-12-08T03:51:53.979Z,0.52
2022-12-08T03:52:25.809Z,0.50
2022-12-08T03:52:57.665Z,0.43
2022-12-08T03:53:29.825Z,0.47
2022-12-08T03:54:01.674Z,0.56
2022-12-08T03:54:33.560Z,0.50
2022-12-08T03:55:05.845Z,0.44
2022-12-08T03:55:37.730Z,0.40
2022-12-08T03:56:15.788Z,0.28
2022-12-08T03:56:47.724Z,0.36
2022-12-08T03:57:19.627Z,0.36
2022-12-08T03:57:51.434Z,0.41
2022-12-08T03:58:23.269Z,0.48
2022-12-08T03:58:56.007Z,0.56
2022-12-08T03:59:27.825Z,0.56
2022-12-08T03:59:59.649Z,0.58
2022-12-08T04:00:31.491Z,0.67
2022-12-08T04:01:03.652Z,0.70
2022-12-08T04:01:35.598Z,0.62
2022-12-08T04:02:07.543Z,0.64
2022-12-08T04:02:39.592Z,0.66
2022-12-08T04:03:11.561Z,0.68
2022-12-08T04:03:43.742Z,0.69
2022-12-08T04:04:15.626Z,0.76
2022-12-08T04:04:47.717Z,0.69
2022-12-08T04:05:19.558Z,0.70
2022-12-08T04:05:51.396Z,0.51
2022-12-08T04:06:24.378Z,0.41
2022-12-08T04:06:56.225Z,0.40
2022-12-08T04:07:28.092Z,0.45
2022-12-08T04:08:01.195Z,0.42
2022-12-08T04:08:33.173Z,0.47
2022-12-08T04:09:05.094Z,0.55
2022-12-08T04:09:36.962Z,0.66
2022-12-08T04:10:09.394Z,0.69
2022-12-08T04:10:41.258Z,0.77
2022-12-08T04:11:13.213Z,0.67
2022-12-08T04:11:45.485Z,0.68
2022-12-08T04:12:17.459Z,0.65
2022-12-08T04:12:49.428Z,0.67
2022-12-08T04:13:21.601Z,0.71
2022-12-08T04:13:53.452Z,0.74
2022-12-08T04:14:25.328Z,0.75
2022-12-08T04:14:57.135Z,0.81
2022-12-08T04:15:28.956Z,0.81
2022-12-08T04:16:00.959Z,0.70
2022-12-08T04:16:32.978Z,0.58
2022-12-08T04:17:05.231Z,0.46
2022-12-08T04:17:37.092Z,0.51
2022-12-08T04:18:08.906Z,0.58
2022-12-08T04:18:40.717Z,0.62
2022-12-08T04:19:12.509Z,0.63
2022-12-08T04:19:44.309Z,0.62
2022-12-08T04:20:16.103Z,0.66
2022-12-08T04:20:47.956Z,0.61
2022-12-08T04:21:20.077Z,0.47
2022-12-08T04:21:51.933Z,0.43
2022-12-08T04:22:24.121Z,0.32
2022-12-08T04:22:56.071Z,0.39
2022-12-08T04:23:28.282Z,0.39
2022-12-08T04:24:01.447Z,0.43
2022-12-08T04:24:33.531Z,0.35
2022-12-08T04:25:06.039Z,0.42
2022-12-08T04:25:38.144Z,0.44
2022-12-08T04:26:10.490Z,0.44
2022-12-08T04:26:42.347Z,0.45
2022-12-08T04:27:14.210Z,0.55
2022-12-08T04:27:46.327Z,0.61
2022-12-08T04:28:18.207Z,0.69
2022-12-08T04:28:49.993Z,0.69
2022-12-08T04:29:21.932Z,0.74
2022-12-08T04:29:53.768Z,0.62
2022-12-08T04:30:25.577Z,0.67
2022-12-08T04:30:57.790Z,0.73
2022-12-08T04:31:29.748Z,0.72
2022-12-08T04:32:01.695Z,0.62
2022-12-08T04:32:33.538Z,0.56
2022-12-08T04:33:06.106Z,0.53
2022-12-08T04:33:38.498Z,0.60
2022-12-08T04:34:10.439Z,0.56
2022-12-08T04:34:42.276Z,0.55
2022-12-08T04:35:14.182Z,0.56
2022-12-08T04:35:46.022Z,0.43
2022-12-08T04:36:17.838Z,0.32
2022-12-08T04:36:49.682Z,0.33
2022-12-08T04:37:21.501Z,0.42
2022-12-08T04:37:53.378Z,0.52
2022-12-08T04:38:25.571Z,0.66
2022-12-08T04:38:58.136Z,0.74
2022-12-08T04:39:29.984Z,0.77
2022-12-08T04:40:02.152Z,0.79
2022-12-08T04:40:34.261Z,0.76
2022-12-08T04:41:06.339Z,0.76
2022-12-08T04:41:38.178Z,0.77
2022-12-08T04:42:10.041Z,0.82
2022-12-08T04:42:42.870Z,0.90
2022-12-08T04:43:14.721Z,0.91
2022-12-08T04:43:46.892Z,0.91
2022-12-08T04:44:18.915Z,0.93
2022-12-08T04:44:50.712Z,0.88
2022-12-08T04:45:22.671Z,0.86
2022-12-08T04:45:54.505Z,0.80
2022-12-08T04:46:26.424Z,0.77
2022-12-08T04:46:58.436Z,0.61
2022-12-08T04:47:30.296Z,0.57
2022-12-08T04:48:02.894Z,0.55
2022-12-08T04:48:36.958Z,0.56
2022-12-08T04:49:09.101Z,0.59
2022-12-08T04:49:40.963Z,0.67
2022-12-08T04:50:13.270Z,0.78
2022-12-08T04:50:46.004Z,0.83
2022-12-08T04:51:20.042Z,0.88
2022-12-08T04:51:51.868Z,0.89
2022-12-08T04:52:23.731Z,0.79
2022-12-08T04:52:55.613Z,0.81
2022-12-08T04:53:27.490Z,0.76
2022-12-08T04:53:59.404Z,0.71
2022-12-08T04:54:31.629Z,0.78
2022-12-08T04:55:04.200Z,0.78
2022-12-08T04:55:43.795Z,0.89
2022-12-08T04:56:17.793Z,0.92
2022-12-08T04:56:49.604Z,0.94
2022-12-08T04:57:21.528Z,0.99
2022-12-08T04:57:53.355Z,1.01
2022-12-08T04:58:25.225Z,1.08
2022-12-08T04:58:57.031Z,1.13
2022-12-08T04:59:28.897Z,1.17
2022-12-08T05:00:01.191Z,1.12
2022-12-08T05:00:33.627Z,1.06
2022-12-08T05:01:05.803Z,1.04
2022-12-08T05:01:37.786Z,1.06
2022-12-08T05:02:09.992Z,1.32
2022-12-08T05:02:42.048Z,1.21
2022-12-08T05:03:15.068Z,1.08
2022-12-08T05:03:46.918Z,1.03
2022-12-08T05:04:18.748Z,0.95
2022-12-08T05:04:50.583Z,0.91
2022-12-08T05:05:22.862Z,0.98
2022-12-08T05:05:54.771Z,0.84
2022-12-08T05:06:26.659Z,0.78
2022-12-08T05:06:58.572Z,0.91
2022-12-08T05:07:30.447Z,0.94
2022-12-08T05:08:02.598Z,1.02
2022-12-08T05:08:34.621Z,1.07
2022-12-08T05:09:06.523Z,1.60
2022-12-08T05:09:38.436Z,1.50
2022-12-08T05:10:10.371Z,1.49
2022-12-08T05:10:42.503Z,1.45
2022-12-08T05:11:14.396Z,1.45
2022-12-08T05:11:49.088Z,1.46
2022-12-08T05:12:21.246Z,1.46
2022-12-08T05:12:53.230Z,1.45
2022-12-08T05:13:25.060Z,1.40
2022-12-08T05:13:56.870Z,1.39
2022-12-08T05:14:28.703Z,1.33
2022-12-08T05:15:00.536Z,1.25
2022-12-08T05:15:32.404Z,1.11
2022-12-08T05:16:10.816Z,1.12
2022-12-08T05:16:43.349Z,0.99
2022-12-08T05:17:16.883Z,1.06
2022-12-08T05:17:48.733Z,1.14
2022-12-08T05:18:20.547Z,1.23
2022-12-08T05:18:52.380Z,1.17
2022-12-08T05:19:24.438Z,1.13
2022-12-08T05:19:56.303Z,1.16
2022-12-08T05:20:28.346Z,1.22
2022-12-08T05:21:00.334Z,1.20
2022-12-08T05:21:32.502Z,1.23
2022-12-08T05:22:04.353Z,1.34
2022-12-08T05:22:39.276Z,1.27
2022-12-08T05:23:14.285Z,1.21
2022-12-08T05:24:02.599Z,1.26
2022-12-08T05:24:34.914Z,1.34
2022-12-08T05:25:06.997Z,1.39
2022-12-08T05:25:38.824Z,1.42
2022-12-08T05:26:10.687Z,1.42
2022-12-08T05:26:42.935Z,1.40
2022-12-08T05:27:15.386Z,1.45
2022-12-08T05:27:47.216Z,1.48
2022-12-08T05:28:44.445Z,1.44
2022-12-08T05:29:17.384Z,1.35
2022-12-08T05:29:50.397Z,1.07
2022-12-08T05:30:23.401Z,0.97
2022-12-08T05:30:55.262Z,0.88
2022-12-08T05:31:27.289Z,0.89
2022-12-08T05:31:59.477Z,0.83
2022-12-08T05:32:31.380Z,0.78
2022-12-08T05:33:07.584Z,0.80
2022-12-08T05:33:43.776Z,1.23
2022-12-08T05:34:15.646Z,1.17
2022-12-08T05:34:47.480Z,1.23
2022-12-08T05:35:19.321Z,1.45
2022-12-08T05:35:51.144Z,1.48
2022-12-08T05:36:23.058Z,1.59
2022-12-08T05:36:55.505Z,1.55
2022-12-08T05:37:27.660Z,1.52
2022-12-08T05:37:59.490Z,1.37
2022-12-08T05:38:31.315Z,1.30
2022-12-08T05:39:03.568Z,1.23
2022-12-08T05:39:35.507Z,1.30
2022-12-08T05:40:08.192Z,1.34
2022-12-08T05:40:41.631Z,1.33
2022-12-08T05:41:19.730Z,1.32
2022-12-08T05:41:51.593Z,1.29
2022-12-08T05:42:25.105Z,1.32
2022-12-08T05:42:57.421Z,1.39
2022-12-08T05:43:29.387Z,1.40
2022-12-08T05:44:01.247Z,1.39
2022-12-08T05:44:33.153Z,1.43
2022-12-08T05:45:05.609Z,1.39
2022-12-08T05:45:37.594Z,1.37
2022-12-08T05:46:09.642Z,1.38
2022-12-08T05:46:41.669Z,1.41
2022-12-08T05:47:13.465Z,1.42
2022-12-08T05:47:45.306Z,1.45
2022-12-08T05:48:17.469Z,1.41
2022-12-08T05:48:49.301Z,1.76
2022-12-08T05:49:21.142Z,1.72
2022-12-08T05:49:53.339Z,2.04
2022-12-08T05:50:25.179Z,2.17
2022-12-08T05:51:00.982Z,2.12
2022-12-08T05:51:33.189Z,1.99
2022-12-08T05:52:05.202Z,1.70
2022-12-08T05:52:37.050Z,1.63
2022-12-08T05:53:08.864Z,1.62
2022-12-08T05:53:41.032Z,1.64
2022-12-08T05:54:14.180Z,1.60
2022-12-08T05:54:46.065Z,1.51
2022-12-08T05:55:17.881Z,1.41
2022-12-08T05:55:49.764Z,1.28
2022-12-08T05:56:22.183Z,1.26
2022-12-08T05:56:54.040Z,1.38
2022-12-08T05:57:25.866Z,1.45
2022-12-08T05:57:57.727Z,1.55
2022-12-08T05:58:30.006Z,1.59
2022-12-08T05:59:04.933Z,1.58
2022-12-08T05:59:37.616Z,1.55
2022-12-08T06:00:10.718Z,1.56
2022-12-08T06:00:44.881Z,1.57
2022-12-08T06:01:30.407Z,1.51
2022-12-08T06:02:02.447Z,1.55
2022-12-08T06:02:35.647Z,1.46
2022-12-08T06:03:08.069Z,1.55
2022-12-08T06:03:39.930Z,1.61
2022-12-08T06:04:11.732Z,1.64
2022-12-08T06:04:43.566Z,1.68
2022-12-08T06:05:15.735Z,1.66
2022-12-08T06:05:47.955Z,1.59
2022-12-08T06:06:20.547Z,1.55
2022-12-08T06:06:52.451Z,1.37
2022-12-08T06:07:24.236Z,1.20
2022-12-08T06:07:56.174Z,1.15
2022-12-08T06:08:28.192Z,1.23
2022-12-08T06:09:00.166Z,1.24
2022-12-08T06:09:32.046Z,1.31
2022-12-08T06:10:05.085Z,1.37
2022-12-08T06:10:41.597Z,1.40
2022-12-08T06:11:23.603Z,1.48
2022-12-08T06:11:55.761Z,1.51
2022-12-08T06:12:27.595Z,1.49
2022-12-08T06:12:59.678Z,1.45
2022-12-08T06:13:31.493Z,1.44
2022-12-08T06:14:03.502Z,1.44
2022-12-08T06:14:35.419Z,1.52
2022-12-08T06:15:08.098Z,1.56
2022-12-08T06:15:41.070Z,1.60
2022-12-08T06:16:13.025Z,1.61
2022-12-08T06:16:44.915Z,1.63
2022-12-08T06:17:17.054Z,1.54
2022-12-08T06:17:48.946Z,1.47
2022-12-08T06:18:20.792Z,1.46
2022-12-08T06:18:52.768Z,1.39
2022-12-08T06:19:24.618Z,1.44
2022-12-08T06:19:56.512Z,1.50
2022-12-08T06:20:29.159Z,1.50
2022-12-08T06:21:09.080Z,1.50
2022-12-08T06:21:40.992Z,1.54
2022-12-08T06:22:12.860Z,1.58
2022-12-08T06:22:45.038Z,1.52
2022-12-08T06:23:16.862Z,1.50
2022-12-08T06:23:53.234Z,1.48
2022-12-08T06:24:25.206Z,1.49
2022-12-08T06:24:57.267Z,1.45
2022-12-08T06:25:29.154Z,1.33
2022-12-08T06:26:02.945Z,1.12
2022-12-08T06:26:36.118Z,1.03
2022-12-08T06:27:07.990Z,0.96
2022-12-08T06:27:39.861Z,0.90
2022-12-08T06:28:11.998Z,0.97
2022-12-08T06:28:44.161Z,1.07
2022-12-08T06:29:15.992Z,1.12
2022-12-08T06:29:47.801Z,1.12
2022-12-08T06:30:19.737Z,1.21
2022-12-08T06:30:51.593Z,1.13
2022-12-08T06:31:25.684Z,1.08
2022-12-08T06:31:57.699Z,1.23
2022-12-08T06:32:29.737Z,1.23
2022-12-08T06:33:01.595Z,1.23
2022-12-08T06:33:33.773Z,1.24
2022-12-08T06:34:06.191Z,1.20
2022-12-08T06:34:38.029Z,1.21
2022-12-08T06:35:09.921Z,1.22
2022-12-08T06:35:41.731Z,1.24
2022-12-08T06:36:15.220Z,3.09
2022-12-08T06:36:47.039Z,5.10
2022-12-08T06:37:19.412Z,5.16
2022-12-08T06:37:51.816Z,4.53
2022-12-08T06:38:23.722Z,4.31
2022-12-08T06:38:56.434Z,4.00
2022-12-08T06:39:28.304Z,3.74
2022-12-08T06:40:00.157Z,3.45
2022-12-08T06:40:32.017Z,3.21
2022-12-08T06:41:05.772Z,3.02
2022-12-08T06:41:57.617Z,3.20
2022-12-08T06:42:44.776Z,2.95
2022-12-08T06:43:16.584Z,3.02
2022-12-08T06:43:48.424Z,2.66
2022-12-08T06:44:20.521Z,2.60
2022-12-08T06:44:52.621Z,2.43
2022-12-08T06:45:24.538Z,2.23
2022-12-08T06:45:56.429Z,2.24
2022-12-08T06:46:28.434Z,2.10
2022-12-08T06:47:00.273Z,2.17
2022-12-08T06:47:32.093Z,2.14
2022-12-08T06:48:04.084Z,2.11
2022-12-08T06:48:36.305Z,2.15
2022-12-08T06:49:08.117Z,2.19
2022-12-08T06:49:40.609Z,2.15
2022-12-08T06:50:13.462Z,2.17
2022-12-08T06:50:45.530Z,2.11
2022-12-08T06:51:20.493Z,2.08
2022-12-08T06:51:52.331Z,2.10
2022-12-08T06:52:24.160Z,2.08
2022-12-08T06:53:04.868Z,1.99
2022-12-08T06:53:38.597Z,1.87
2022-12-08T06:54:10.551Z,1.74
2022-12-08T06:54:42.766Z,1.72
2022-12-08T06:55:35.530Z,1.70
2022-12-08T06:56:07.953Z,1.68
2022-12-08T06:56:39.784Z,1.72
2022-12-08T06:57:11.658Z,1.75
2022-12-08T06:57:43.505Z,1.68
2022-12-08T06:58:15.349Z,1.69
2022-12-08T06:58:52.468Z,1.61
2022-12-08T06:59:26.169Z,1.54
2022-12-08T06:59:58.310Z,1.54
2022-12-08T07:00:30.436Z,1.59
2022-12-08T07:01:11.764Z,1.68
2022-12-08T07:01:43.701Z,1.72
2022-12-08T07:02:16.011Z,1.70
2022-12-08T07:02:47.936Z,1.70
2022-12-08T07:03:19.798Z,1.73
2022-12-08T07:03:51.753Z,1.78
2022-12-08T07:04:23.919Z,1.85
2022-12-08T07:04:55.781Z,1.88
2022-12-08T07:05:27.956Z,1.92
2022-12-08T07:06:03.827Z,1.91
2022-12-08T07:06:36.133Z,1.95
2022-12-08T07:07:08.087Z,2.01
2022-12-08T07:07:40.101Z,2.04
2022-12-08T07:08:12.081Z,2.06
2022-12-08T07:08:44.291Z,2.03
2022-12-08T07:09:16.111Z,2.10
2022-12-08T07:09:48.004Z,2.25
2022-12-08T07:10:20.093Z,2.21
2022-12-08T07:10:52.576Z,2.13
2022-12-08T07:11:24.403Z,2.03
2022-12-08T07:11:56.235Z,1.91
2022-12-08T07:12:28.072Z,1.89
2022-12-08T07:12:59.934Z,1.91
2022-12-08T07:13:31.753Z,1.97
2022-12-08T07:14:03.577Z,2.05
2022-12-08T07:14:35.490Z,2.07
2022-12-08T07:15:08.199Z,2.07
2022-12-08T07:15:40.199Z,2.04
2022-12-08T07:16:12.719Z,2.04
2022-12-08T07:16:44.714Z,1.91
2022-12-08T07:17:16.667Z,1.84
2022-12-08T07:17:49.018Z,1.85
2022-12-08T07:18:20.937Z,1.88
2022-12-08T07:18:52.775Z,1.85
2022-12-08T07:19:24.665Z,1.78
2022-12-08T07:19:56.494Z,1.77
2022-12-08T07:20:28.553Z,1.76
2022-12-08T07:21:06.093Z,1.70
2022-12-08T07:21:38.279Z,1.72
2022-12-08T07:22:10.179Z,1.76
2022-12-08T07:22:42.202Z,1.76
2022-12-08T07:23:14.203Z,1.85
2022-12-08T07:23:50.208Z,1.98
2022-12-08T07:24:26.094Z,2.02
2022-12-08T07:24:57.951Z,2.12
2022-12-08T07:25:29.974Z,2.19
2022-12-08T07:26:04.111Z,2.21
2022-12-08T07:26:35.978Z,2.27
2022-12-08T07:27:08.157Z,2.23
2022-12-08T07:27:40.009Z,2.13
2022-12-08T07:28:11.893Z,2.01
2022-12-08T07:28:44.055Z,1.99
2022-12-08T07:29:15.871Z,2.06
2022-12-08T07:29:47.710Z,2.09
2022-12-08T07:30:19.708Z,2.06
2022-12-08T07:30:51.587Z,2.06
2022-12-08T07:31:25.232Z,2.11
2022-12-08T07:31:57.161Z,2.20
2022-12-08T07:32:29.376Z,2.26
2022-12-08T07:33:03.102Z,2.26
2022-12-08T07:33:36.209Z,2.29
2022-12-08T07:34:08.121Z,2.27
2022-12-08T07:34:39.929Z,2.19